Time;durP1;ratioP1;P1;durP2;ratioP2;P2;SDS_P1;SDS_P2;PMS_P1;PMS_P2;Temp;Humidity;BMP_temperature;BMP_pressure;BME280_temperature;BME280_humidity;BME280_pressure;Samples;Min_cycle;Max_cycle;Signal;HPM_P1;HPM_P2
2022/03/02 00:01:14;;;;;;;17.77;10.95;;;;;;;1.24;64.55;102400.94;5041390;28;20053;-70
2022/03/02 00:03:41;;;;;;;19.67;10.43;;;;;;;1.09;64.65;102405.91;5045130;28;20040;-70
2022/03/02 00:06:08;;;;;;;20.05;10.73;;;;;;;1.12;64.52;102413.69;5051212;28;20115;-70
2022/03/02 00:08:34;;;;;;;19.75;10.75;;;;;;;0.84;65.67;102410.72;5051617;28;20126;-70
2022/03/02 00:11:03;;;;;;;25.52;11.95;;;;;;;0.95;65.34;102401.41;5046200;28;20095;-70
2022/03/02 00:13:29;;;;;;;20.55;11.40;;;;;;;0.93;65.55;102404.81;5047358;28;20053;-70
2022/03/02 00:15:55;;;;;;;19.30;11.88;;;;;;;0.59;67.16;102406.03;5046058;28;20591;-70
2022/03/02 00:18:22;;;;;;;20.20;11.45;;;;;;;0.76;66.57;102396.84;5051303;28;20126;-70
2022/03/02 00:20:49;;;;;;;19.83;10.60;;;;;;;1.06;65.66;102400.69;5050501;28;20045;-70
2022/03/02 00:23:15;;;;;;;18.60;10.98;;;;;;;1.08;65.57;102401.56;5042905;28;20130;-70
2022/03/02 00:25:41;;;;;;;22.90;11.45;;;;;;;1.34;64.34;102390.72;5041836;28;20060;-70
2022/03/02 00:28:09;;;;;;;23.85;12.02;;;;;;;1.30;64.60;102396.72;5042704;28;20120;-70
2022/03/02 00:30:36;;;;;;;22.38;12.13;;;;;;;1.26;64.62;102394.94;5048796;28;20045;-70
2022/03/02 00:33:02;;;;;;;19.75;11.15;;;;;;;1.33;64.56;102393.31;5035069;28;20103;-70
2022/03/02 00:35:29;;;;;;;22.00;11.13;;;;;;;1.30;64.48;102398.41;5038584;28;20048;-70
2022/03/02 00:37:55;;;;;;;20.15;10.40;;;;;;;1.30;64.37;102398.41;5049442;28;20053;-70
2022/03/02 00:40:22;;;;;;;19.80;10.70;;;;;;;1.54;63.70;102385.81;5049081;28;20079;-70
2022/03/02 00:42:48;;;;;;;20.67;11.63;;;;;;;1.29;64.39;102381.19;5044202;28;20069;-70
2022/03/02 00:45:16;;;;;;;27.35;13.45;;;;;;;0.90;66.16;102384.97;5050464;28;20044;-70
2022/03/02 00:47:43;;;;;;;21.95;11.95;;;;;;;0.86;66.50;102370.28;5047571;28;20052;-70
2022/03/02 00:50:11;;;;;;;20.65;11.57;;;;;;;1.01;65.59;102376.50;5048009;28;20381;-70
2022/03/02 00:52:37;;;;;;;21.85;12.13;;;;;;;0.67;67.24;102372.56;5043195;28;20103;-70
2022/03/02 00:55:04;;;;;;;21.70;11.43;;;;;;;1.00;66.90;102379.97;5036430;28;20130;-70
2022/03/02 00:57:30;;;;;;;18.88;11.48;;;;;;;0.89;66.96;102370.31;5051001;28;20123;-70
2022/03/02 00:59:57;;;;;;;21.92;12.30;;;;;;;0.96;66.98;102364.41;5042672;28;20493;-70
2022/03/02 01:02:24;;;;;;;24.17;11.50;;;;;;;1.13;66.85;102371.50;5038069;28;20069;-70
2022/03/02 01:04:51;;;;;;;24.95;11.75;;;;;;;1.39;65.79;102368.41;5049451;28;20045;-70
2022/03/02 01:07:17;;;;;;;17.83;10.38;;;;;;;1.37;66.13;102364.91;5041106;28;20109;-70
2022/03/02 01:09:44;;;;;;;21.30;11.43;;;;;;;1.58;65.43;102371.19;5032224;28;20068;-70
2022/03/02 01:12:10;;;;;;;24.25;11.40;;;;;;;1.52;65.42;102365.94;5049956;28;20094;-70
2022/03/02 01:14:37;;;;;;;22.98;12.00;;;;;;;1.48;65.55;102376.25;5033170;28;20045;-70
2022/03/02 01:17:03;;;;;;;21.40;12.13;;;;;;;1.50;65.63;102375.41;5050785;28;20049;-70
2022/03/02 01:19:31;;;;;;;27.15;12.52;;;;;;;1.55;65.43;102374.63;5049101;28;20159;-70
2022/03/02 01:21:57;;;;;;;21.20;11.77;;;;;;;1.80;64.77;102368.84;5044757;28;20049;-70
2022/03/02 01:24:24;;;;;;;23.10;12.15;;;;;;;1.88;64.18;102361.19;5044733;28;20068;-70
2022/03/02 01:26:50;;;;;;;23.42;11.95;;;;;;;1.71;64.65;102371.34;5042500;28;20107;-70
2022/03/02 01:29:17;;;;;;;26.75;13.27;;;;;;;1.61;64.88;102361.75;5035073;28;20125;-70
2022/03/02 01:31:43;;;;;;;21.27;11.15;;;;;;;1.45;65.32;102352.09;5047131;28;20111;-70
2022/03/02 01:34:09;;;;;;;22.88;12.07;;;;;;;1.37;65.75;102349.41;5050221;28;20061;-70
2022/03/02 01:36:37;;;;;;;20.08;11.82;;;;;;;1.55;65.21;102343.59;5049670;28;20397;-70
2022/03/02 01:39:04;;;;;;;27.30;12.27;;;;;;;1.64;64.66;102338.50;5049332;28;20061;-70
2022/03/02 01:41:30;;;;;;;20.98;11.68;;;;;;;1.87;63.79;102326.69;5044664;28;20446;-70
2022/03/02 01:43:56;;;;;;;26.42;13.10;;;;;;;1.74;64.10;102329.97;5041354;28;20065;-70
2022/03/02 01:46:24;;;;;;;20.05;10.93;;;;;;;1.39;65.33;102328.75;5040939;28;20104;-70
2022/03/02 01:48:50;;;;;;;23.30;11.95;;;;;;;1.50;65.18;102329.75;5044484;28;20578;-70
2022/03/02 01:51:17;;;;;;;21.73;12.35;;;;;;;1.68;64.78;102329.06;5048103;28;20045;-70
2022/03/02 01:53:45;;;;;;;24.52;12.32;;;;;;;1.62;64.43;102329.88;5042210;28;20057;-70
2022/03/02 01:56:12;;;;;;;24.27;12.27;;;;;;;1.80;64.27;102324.91;5037451;28;20064;-70
2022/03/02 01:58:39;;;;;;;22.88;12.32;;;;;;;1.86;64.37;102334.41;5048279;28;20068;-70
2022/03/02 02:01:06;;;;;;;21.67;11.85;;;;;;;1.97;63.88;102325.03;5047350;28;20095;-70
2022/03/02 02:03:33;;;;;;;23.98;11.70;;;;;;;2.19;62.99;102314.00;5030769;28;20034;-70
2022/03/02 02:06:00;;;;;;;22.70;11.98;;;;;;;2.29;62.30;102318.38;5049141;28;20566;-69
2022/03/02 02:08:27;;;;;;;21.90;11.05;;;;;;;2.12;62.79;102312.22;5049739;28;20052;-70
2022/03/02 02:10:56;;;;;;;24.55;12.02;;;;;;;2.07;62.75;102307.88;5046771;28;20064;-70
2022/03/02 02:13:22;;;;;;;18.33;11.10;;;;;;;2.10;62.51;102306.19;5048250;28;20485;-70
2022/03/02 02:15:49;;;;;;;20.05;11.88;;;;;;;2.02;62.78;102305.25;5047578;28;20130;-70
2022/03/02 02:18:15;;;;;;;22.35;11.75;;;;;;;1.97;62.84;102306.91;5048455;28;20099;-70
2022/03/02 02:20:43;;;;;;;24.42;12.25;;;;;;;1.65;64.57;102309.22;5047342;28;20095;-70
2022/03/02 02:23:09;;;;;;;20.55;10.40;;;;;;;1.84;63.59;102311.13;5037683;28;20075;-71
2022/03/02 02:25:37;;;;;;;23.38;11.68;;;;;;;1.94;63.42;102307.78;5033750;28;20055;-71
2022/03/02 02:28:03;;;;;;;22.15;11.50;;;;;;;1.92;63.51;102288.78;5049098;28;20497;-70
2022/03/02 02:30:31;;;;;;;24.08;11.90;;;;;;;2.05;62.90;102288.88;5046194;28;20048;-70
2022/03/02 02:32:57;;;;;;;23.60;11.65;;;;;;;1.96;62.92;102303.47;5046044;28;20064;-70
2022/03/02 02:35:26;;;;;;;23.10;11.73;;;;;;;1.92;62.70;102301.69;5042922;28;20609;-70
2022/03/02 02:37:55;;;;;;;17.92;10.52;;;;;;;1.89;62.90;102299.09;5048556;28;20497;-70
2022/03/02 02:40:22;;;;;;;20.17;11.55;;;;;;;1.62;63.95;102298.88;5047625;28;20544;-71
2022/03/02 02:42:49;;;;;;;23.50;12.15;;;;;;;1.59;64.08;102293.63;5044679;28;20049;-70
2022/03/02 02:45:20;;;;;;;20.02;11.93;;;;;;;1.52;64.30;102291.84;5036825;28;20103;-70
2022/03/02 02:47:49;;;;;;;20.52;10.82;;;;;;;1.58;64.25;102294.50;5045758;28;20424;-71
2022/03/02 02:50:18;;;;;;;24.20;12.23;;;;;;;1.64;64.01;102288.50;5041656;28;20274;-70
2022/03/02 02:52:44;;;;;;;20.95;11.40;;;;;;;1.80;63.46;102283.50;5038328;28;20154;-70
2022/03/02 02:55:13;;;;;;;23.20;11.70;;;;;;;1.96;62.93;102275.00;5043308;28;20045;-70
2022/03/02 02:57:40;;;;;;;21.38;11.95;;;;;;;1.95;62.76;102278.47;5047116;28;20118;-70
2022/03/02 03:00:10;;;;;;;23.35;11.68;;;;;;;1.99;62.75;102268.16;5047415;28;20447;-70
2022/03/02 03:02:37;;;;;;;22.52;11.88;;;;;;;1.68;63.72;102272.19;5037687;28;20471;-70
2022/03/02 03:05:04;;;;;;;21.65;11.55;;;;;;;1.62;64.24;102265.25;5033168;28;20531;-70
2022/03/02 03:07:30;;;;;;;21.30;11.38;;;;;;;1.71;63.55;102262.72;5047403;28;20056;-70
2022/03/02 03:09:56;;;;;;;20.08;11.93;;;;;;;1.86;63.08;102255.09;5046181;28;20060;-70
2022/03/02 03:12:24;;;;;;;22.17;11.60;;;;;;;1.79;63.51;102250.75;5028596;28;20139;-70
2022/03/02 03:14:50;;;;;;;20.00;11.20;;;;;;;1.68;63.75;102236.84;5035140;28;20048;-70
2022/03/02 03:17:17;;;;;;;18.20;10.95;;;;;;;1.42;64.58;102243.50;5052034;28;20493;-70
2022/03/02 03:19:43;;;;;;;20.63;11.20;;;;;;;1.51;64.43;102243.59;5051672;28;20095;-70
2022/03/02 03:22:09;;;;;;;22.38;11.25;;;;;;;1.44;64.71;102236.66;5051921;28;20072;-70
2022/03/02 03:24:36;;;;;;;20.98;11.77;;;;;;;1.27;65.49;102233.88;5041422;28;20055;-70
2022/03/02 03:27:02;;;;;;;19.90;11.05;;;;;;;1.16;65.63;102235.50;5042843;28;20063;-70
2022/03/02 03:29:30;;;;;;;18.27;10.90;;;;;;;0.83;66.32;102233.41;5051467;28;20073;-70
2022/03/02 03:31:56;;;;;;;24.20;11.98;;;;;;;1.21;65.33;102232.97;5043075;28;20154;-70
2022/03/02 03:34:23;;;;;;;18.10;11.25;;;;;;;1.30;64.99;102233.03;5044370;28;20064;-70
2022/03/02 03:36:49;;;;;;;22.00;11.35;;;;;;;1.31;64.85;102233.06;5051103;28;20069;-70
2022/03/02 03:39:15;;;;;;;22.30;11.93;;;;;;;1.32;64.81;102236.53;5051164;28;20103;-70
2022/03/02 03:41:42;;;;;;;20.27;10.82;;;;;;;1.17;65.25;102249.28;5049966;28;20052;-70
2022/03/02 03:44:08;;;;;;;20.42;11.43;;;;;;;1.26;65.05;102249.34;5050766;28;20068;-70
2022/03/02 03:46:36;;;;;;;20.75;11.77;;;;;;;1.41;64.38;102252.97;5050296;28;20049;-70
2022/03/02 03:49:02;;;;;;;20.73;10.88;;;;;;;1.29;64.61;102250.28;5050434;28;20071;-70
2022/03/02 03:51:29;;;;;;;20.52;11.77;;;;;;;1.30;64.39;102251.13;5051350;28;20072;-70
2022/03/02 03:53:55;;;;;;;17.58;9.90;;;;;;;1.54;64.05;102250.50;5044713;28;20111;-70
2022/03/02 03:56:22;;;;;;;21.48;11.38;;;;;;;1.39;64.14;102253.81;5048978;28;20053;-70
2022/03/02 03:58:48;;;;;;;19.70;11.35;;;;;;;1.44;64.11;102257.31;5051424;28;20041;-71
2022/03/02 04:01:15;;;;;;;22.05;12.13;;;;;;;1.45;63.97;102259.91;5051027;28;20041;-70
2022/03/02 04:03:42;;;;;;;20.92;12.00;;;;;;;1.38;63.98;102252.06;5049579;28;20040;-70
2022/03/02 04:06:09;;;;;;;20.33;11.40;;;;;;;0.35;67.42;102251.69;5050092;28;20072;-70
2022/03/02 04:08:35;;;;;;;18.27;11.00;;;;;;;0.86;66.11;102248.94;5051812;28;20041;-70
2022/03/02 04:11:01;;;;;;;23.23;11.63;;;;;;;1.10;65.33;102250.94;5044428;28;20041;-70
2022/03/02 04:13:28;;;;;;;24.67;12.35;;;;;;;1.35;65.05;102244.28;5031428;28;20107;-70
2022/03/02 04:15:54;;;;;;;19.67;11.32;;;;;;;1.54;64.17;102248.78;5046381;28;20072;-70
2022/03/02 04:18:20;;;;;;;24.15;11.75;;;;;;;1.61;64.07;102250.59;5043427;28;20048;-70
2022/03/02 04:20:48;;;;;;;19.38;11.95;;;;;;;1.55;64.40;102239.31;5049622;28;20049;-70
2022/03/02 04:23:14;;;;;;;27.13;11.82;;;;;;;1.53;64.36;102233.25;5042887;28;20056;-70
2022/03/02 04:25:41;;;;;;;20.65;11.15;;;;;;;1.42;64.39;102234.03;5036895;28;20440;-70
2022/03/02 04:28:07;;;;;;;21.00;11.38;;;;;;;1.39;64.77;102235.72;5046231;28;20489;-70
2022/03/02 04:30:33;;;;;;;23.10;11.55;;;;;;;1.29;65.53;102233.91;5050638;28;20513;-70
2022/03/02 04:33:00;;;;;;;22.05;11.18;;;;;;;1.00;66.29;102231.00;5045935;28;20064;-70
2022/03/02 04:35:27;;;;;;;21.52;11.13;;;;;;;0.93;66.83;102232.66;5040610;28;20473;-70
2022/03/02 04:37:55;;;;;;;24.13;11.18;;;;;;;0.86;67.50;102223.09;5050130;28;20083;-70
2022/03/02 04:40:21;;;;;;;19.60;11.15;;;;;;;0.84;67.92;102219.66;5044992;28;20037;-70
2022/03/02 04:42:47;;;;;;;20.67;11.38;;;;;;;1.20;65.94;102210.56;5046337;28;20389;-70
2022/03/02 04:45:14;;;;;;;17.92;11.20;;;;;;;1.11;66.27;102213.06;5049784;28;20493;-70
2022/03/02 04:47:40;;;;;;;22.85;12.10;;;;;;;1.05;66.51;102205.22;5038496;28;20099;-70
2022/03/02 04:50:08;;;;;;;19.77;11.13;;;;;;;1.03;66.63;102206.94;5036235;28;20045;-70
2022/03/02 04:52:34;;;;;;;21.65;10.95;;;;;;;1.34;65.64;102199.50;5049697;28;20552;-70
2022/03/02 04:55:09;;;;;;;18.17;11.30;;;;;;;1.47;65.19;102203.06;5042315;28;20049;-70
2022/03/02 04:57:37;;;;;;;21.17;10.35;;;;;;;1.66;64.50;102207.53;5044452;28;20082;-70
2022/03/02 05:00:07;;;;;;;20.42;11.13;;;;;;;1.60;64.87;102210.06;5049544;28;20040;-70
2022/03/02 05:02:33;;;;;;;20.02;11.38;;;;;;;1.78;64.29;102206.75;5033248;28;20045;-70
2022/03/02 05:05:00;;;;;;;19.58;10.68;;;;;;;1.87;63.93;102214.59;5037250;28;20452;-70
2022/03/02 05:07:26;;;;;;;22.77;11.68;;;;;;;1.94;63.69;102209.47;5030662;28;20045;-70
2022/03/02 05:09:52;;;;;;;22.30;11.93;;;;;;;2.13;63.02;102204.41;5038046;28;20049;-70
2022/03/02 05:12:21;;;;;;;19.80;11.32;;;;;;;2.14;62.75;102212.22;5038780;28;20095;-70
2022/03/02 05:14:47;;;;;;;22.02;11.75;;;;;;;2.05;63.14;102201.78;5049612;28;20051;-70
2022/03/02 05:17:14;;;;;;;20.52;10.18;;;;;;;2.01;63.17;102206.91;5048932;28;20513;-70
2022/03/02 05:19:40;;;;;;;20.60;11.13;;;;;;;1.98;63.70;102209.50;5048898;28;20505;-70
2022/03/02 05:22:07;;;;;;;23.20;11.30;;;;;;;1.96;63.74;102197.41;5050760;28;20045;-70
2022/03/02 05:24:33;;;;;;;19.05;11.43;;;;;;;2.08;63.31;102200.94;5045663;28;20091;-70
2022/03/02 05:26:59;;;;;;;20.33;11.02;;;;;;;2.15;62.90;102200.97;5045382;28;20049;-70
2022/03/02 05:29:27;;;;;;;19.05;11.27;;;;;;;2.05;63.24;102200.91;5032164;28;20103;-70
2022/03/02 05:31:54;;;;;;;18.38;10.45;;;;;;;1.98;63.09;102204.31;5041794;28;20056;-70
2022/03/02 05:34:20;;;;;;;23.20;12.40;;;;;;;1.93;63.05;102207.72;5045489;28;20477;-70
2022/03/02 05:36:46;;;;;;;22.00;11.98;;;;;;;1.89;62.94;102211.16;5032258;28;20343;-70
2022/03/02 05:39:13;;;;;;;20.60;11.25;;;;;;;1.77;62.98;102211.09;5028951;28;20174;-70
2022/03/02 05:41:39;;;;;;;21.98;12.10;;;;;;;1.73;63.49;102217.09;5049642;28;20044;-70
2022/03/02 05:44:07;;;;;;;22.98;11.77;;;;;;;1.54;64.22;102212.59;5049384;28;20045;-70
2022/03/02 05:46:35;;;;;;;20.50;10.30;;;;;;;1.67;64.43;102214.44;5049524;28;20461;-70
2022/03/02 05:49:02;;;;;;;18.75;11.57;;;;;;;1.93;63.48;102210.31;5047981;28;20040;-70
2022/03/02 05:51:28;;;;;;;23.63;12.52;;;;;;;1.58;64.85;102210.91;5048219;28;20114;-70
2022/03/02 05:53:54;;;;;;;20.33;11.90;;;;;;;1.61;64.70;102222.16;5040024;28;20095;-71
2022/03/02 05:56:21;;;;;;;22.75;11.75;;;;;;;1.65;64.65;102215.28;5046256;28;20044;-70
2022/03/02 05:58:47;;;;;;;20.63;11.55;;;;;;;1.77;64.45;102213.66;5048211;28;20723;-70
2022/03/02 06:01:14;;;;;;;18.65;11.02;;;;;;;1.75;64.27;102212.78;5040911;28;20052;-70
2022/03/02 06:03:41;;;;;;;19.25;10.68;;;;;;;1.80;64.26;102213.69;5048886;28;20065;-70
2022/03/02 06:06:07;;;;;;;21.88;11.23;;;;;;;1.86;63.94;102215.44;5049684;28;20505;-71
2022/03/02 06:08:34;;;;;;;21.63;10.68;;;;;;;1.75;64.61;102223.13;5050150;28;20063;-70
2022/03/02 06:11:01;;;;;;;19.83;10.80;;;;;;;1.69;65.00;102225.66;5043359;28;20050;-70
2022/03/02 06:13:28;;;;;;;19.42;11.25;;;;;;;1.67;65.16;102226.47;5037365;28;20718;-70
2022/03/02 06:15:54;;;;;;;19.63;11.57;;;;;;;1.51;65.63;102233.25;5047369;28;20143;-70
2022/03/02 06:18:21;;;;;;;23.83;12.23;;;;;;;1.32;66.68;102228.75;5049741;28;20409;-71
2022/03/02 06:20:51;;;;;;;20.17;11.07;;;;;;;1.38;66.67;102226.22;5045473;28;20045;-70
2022/03/02 06:23:18;;;;;;;19.77;10.80;;;;;;;1.47;66.10;102228.91;5038294;28;20049;-70
2022/03/02 06:25:45;;;;;;;24.25;12.57;;;;;;;1.57;65.91;102238.47;5036555;28;20037;-70
2022/03/02 06:28:12;;;;;;;22.48;11.80;;;;;;;1.74;65.49;102238.59;5048193;28;20052;-70
2022/03/02 06:30:39;;;;;;;22.17;12.32;;;;;;;1.89;64.92;102238.72;5043904;28;20048;-71
2022/03/02 06:33:05;;;;;;;21.17;11.95;;;;;;;1.81;65.12;102237.84;5048605;28;20045;-71
2022/03/02 06:35:31;;;;;;;19.80;11.15;;;;;;;1.41;66.14;102234.00;5045646;28;20045;-70
2022/03/02 06:37:59;;;;;;;20.13;11.98;;;;;;;1.01;68.11;102229.28;5034249;28;20547;-72
2022/03/02 06:40:25;;;;;;;25.08;12.02;;;;;;;0.63;69.63;102241.75;5048076;28;20049;-70
2022/03/02 06:43:01;;;;;;;23.48;12.05;;;;;;;0.82;69.61;102234.25;5045265;28;20095;-70
2022/03/02 06:45:38;;;;;;;28.52;11.48;;;;;;;1.29;68.08;102228.75;5043245;28;20511;-70
2022/03/02 06:48:11;;;;;;;21.13;10.75;;;;;;;1.66;66.47;102223.06;5047049;28;20064;-70
2022/03/02 06:50:41;;;;;;;20.52;11.45;;;;;;;1.99;65.42;102225.03;5046996;28;20098;-70
2022/03/02 06:53:12;;;;;;;23.17;11.27;;;;;;;1.99;64.36;102230.22;5053945;28;20045;-70
2022/03/02 06:55:41;;;;;;;23.83;12.18;;;;;;;2.08;64.26;102221.63;5051794;28;20458;-71
2022/03/02 06:58:10;;;;;;;25.73;12.65;;;;;;;2.12;64.23;102228.56;5037097;28;20116;-70
2022/03/02 07:00:37;;;;;;;28.38;12.98;;;;;;;1.99;64.55;102231.94;5051920;28;20095;-70
2022/03/02 07:03:05;;;;;;;28.38;13.02;;;;;;;1.63;65.84;102240.22;5052711;28;20520;-70
2022/03/02 07:05:32;;;;;;;29.17;13.60;;;;;;;1.72;65.40;102236.03;5052624;28;20044;-70
2022/03/02 07:08:00;;;;;;;29.52;13.65;;;;;;;1.62;65.46;102241.97;5051454;28;20049;-70
2022/03/02 07:10:28;;;;;;;30.60;14.60;;;;;;;1.32;65.64;102242.56;5049590;28;20094;-70
2022/03/02 07:12:55;;;;;;;34.28;14.80;;;;;;;1.48;65.29;102234.97;5049086;28;20489;-70
2022/03/02 07:15:22;;;;;;;31.80;16.42;;;;;;;1.99;63.24;102239.69;5051217;28;20048;-70
2022/03/02 07:17:48;;;;;;;33.03;14.63;;;;;;;1.99;63.31;102234.50;5036635;28;20053;-71
2022/03/02 07:20:15;;;;;;;26.60;13.80;;;;;;;2.40;62.37;102240.81;5053117;28;20076;-71
2022/03/02 07:22:44;;;;;;;31.23;14.80;;;;;;;2.74;61.59;102244.41;5052378;28;20063;-70
2022/03/02 07:25:17;;;;;;;25.63;13.13;;;;;;;3.01;60.78;102241.94;5039698;28;20506;-70
2022/03/02 07:27:45;;;;;;;26.52;13.13;;;;;;;3.18;60.26;102244.59;5044571;28;20118;-70
2022/03/02 07:30:12;;;;;;;24.45;13.18;;;;;;;3.15;59.73;102241.97;5042112;28;20041;-70
2022/03/02 07:32:42;;;;;;;24.20;13.55;;;;;;;3.16;59.13;102241.13;5037439;28;20042;-70
2022/03/02 07:35:09;;;;;;;26.70;12.18;;;;;;;2.45;59.68;102239.09;5054904;28;20041;-70
2022/03/02 07:37:36;;;;;;;22.52;12.32;;;;;;;2.99;58.30;102243.69;5054604;28;20042;-70
2022/03/02 07:40:04;;;;;;;35.50;12.27;;;;;;;3.42;58.17;102232.53;5055797;28;20053;-69
2022/03/02 07:42:32;;;;;;;25.83;12.38;;;;;;;3.52;59.67;102223.03;5062555;28;20056;-70
2022/03/02 07:45:00;;;;;;;25.10;12.45;;;;;;;3.56;61.33;102236.88;5048735;28;20056;-70
2022/03/02 07:47:27;;;;;;;28.02;13.32;;;;;;;3.63;61.67;102238.59;5072035;28;20048;-70
2022/03/02 07:49:53;;;;;;;20.88;11.63;;;;;;;3.56;60.83;102229.94;5074994;28;20044;-70
2022/03/02 07:52:25;;;;;;;24.05;12.75;;;;;;;3.71;61.32;102236.88;5068525;28;20045;-70
2022/03/02 07:54:55;;;;;;;19.17;12.48;;;;;;;3.87;61.37;102233.44;5068667;28;20037;-70
2022/03/02 07:57:23;;;;;;;25.67;13.80;;;;;;;3.82;61.15;102246.41;5069388;28;20060;-69
2022/03/02 07:59:52;;;;;;;21.67;12.82;;;;;;;3.75;61.46;102239.47;5072087;28;20041;-69
2022/03/02 08:02:22;;;;;;;23.60;11.70;;;;;;;3.80;61.64;102235.16;5066299;28;20319;-70
2022/03/02 08:04:52;;;;;;;23.15;12.18;;;;;;;3.87;61.50;102238.63;5075124;28;20155;-69
2022/03/02 08:07:18;;;;;;;23.75;12.77;;;;;;;4.04;60.52;102226.47;5069411;28;20071;-69
2022/03/02 08:09:45;;;;;;;27.90;12.75;;;;;;;4.04;59.63;102233.41;5051361;28;20045;-69
2022/03/02 08:12:13;;;;;;;21.92;12.57;;;;;;;4.28;61.30;102236.84;5051541;28;20041;-69
2022/03/02 08:14:40;;;;;;;22.38;11.95;;;;;;;4.32;61.15;102225.56;5052019;28;20041;-69
2022/03/02 08:17:06;;;;;;;23.88;12.23;;;;;;;4.23;61.17;102232.50;5050809;28;20042;-70
2022/03/02 08:19:34;;;;;;;24.95;13.95;;;;;;;4.50;61.55;102241.97;5056057;28;20155;-70
2022/03/02 08:22:04;;;;;;;25.45;13.77;;;;;;;4.57;61.30;102228.09;5049368;28;20056;-71
2022/03/02 08:24:32;;;;;;;23.70;13.18;;;;;;;4.59;59.60;102222.03;5044519;28;20064;-70
2022/03/02 08:27:01;;;;;;;24.60;13.45;;;;;;;4.65;59.12;102232.41;5050388;28;20049;-69
2022/03/02 08:29:31;;;;;;;23.15;13.43;;;;;;;4.74;58.25;102221.97;5057983;28;20075;-69
2022/03/02 08:32:00;;;;;;;23.63;13.18;;;;;;;4.97;58.54;102218.38;5071948;28;20040;-69
2022/03/02 08:34:26;;;;;;;25.42;13.52;;;;;;;4.93;58.05;102211.47;5073593;28;20072;-69
2022/03/02 08:36:55;;;;;;;26.75;14.70;;;;;;;4.53;57.51;102209.06;5065779;28;20084;-69
2022/03/02 08:39:23;;;;;;;27.90;13.88;;;;;;;4.69;58.65;102207.28;5064323;28;20071;-69
2022/03/02 08:41:49;;;;;;;29.30;14.13;;;;;;;4.87;57.31;102200.25;5065352;28;20048;-70
2022/03/02 08:44:16;;;;;;;26.65;14.38;;;;;;;5.05;58.20;102195.81;5048097;28;20046;-70
2022/03/02 08:46:45;;;;;;;25.50;13.52;;;;;;;5.13;58.06;102204.44;5038262;28;20046;-70
2022/03/02 08:49:11;;;;;;;23.25;13.82;;;;;;;5.24;59.13;102200.91;5038144;28;20254;-70
2022/03/02 08:51:39;;;;;;;23.88;13.05;;;;;;;5.23;57.17;102204.38;5044436;28;20045;-70
2022/03/02 08:54:07;;;;;;;23.88;13.73;;;;;;;5.52;57.59;102206.78;5053486;28;20048;-69
2022/03/02 08:56:35;;;;;;;26.05;14.05;;;;;;;5.49;57.82;102209.41;5054959;28;20046;-70
2022/03/02 08:59:02;;;;;;;29.98;14.73;;;;;;;5.24;59.44;102216.50;5053657;28;20044;-69
2022/03/02 09:01:30;;;;;;;27.42;13.98;;;;;;;5.43;58.89;102216.38;5037468;28;20049;-70
2022/03/02 09:03:59;;;;;;;25.15;13.55;;;;;;;5.48;59.56;102225.88;5047825;28;20559;-70
2022/03/02 09:06:28;;;;;;;26.35;13.55;;;;;;;5.60;58.80;102217.13;5053766;28;20036;-69
2022/03/02 09:08:55;;;;;;;24.60;14.18;;;;;;;5.74;59.81;102217.88;5052911;28;20055;-69
2022/03/02 09:11:23;;;;;;;27.15;15.18;;;;;;;5.92;57.07;102212.53;5040596;28;20050;-69
2022/03/02 09:13:50;;;;;;;26.70;14.18;;;;;;;6.04;54.93;102203.75;5045171;28;20049;-69
2022/03/02 09:16:17;;;;;;;29.27;15.25;;;;;;;6.13;54.77;102203.66;5047186;28;20078;-69
2022/03/02 09:18:44;;;;;;;28.35;14.18;;;;;;;5.04;56.46;102201.88;5048665;28;20045;-69
2022/03/02 09:21:10;;;;;;;26.70;14.82;;;;;;;4.66;59.48;102204.66;5051583;28;20045;-69
2022/03/02 09:23:40;;;;;;;24.33;14.32;;;;;;;5.31;57.68;102196.53;5044698;28;20116;-69
2022/03/02 09:26:09;;;;;;;24.85;14.90;;;;;;;5.50;56.48;102195.53;5050035;28;20409;-69
2022/03/02 09:28:39;;;;;;;31.30;14.98;;;;;;;5.38;54.96;102195.59;5048588;28;20047;-69
2022/03/02 09:31:07;;;;;;;25.75;14.85;;;;;;;5.66;56.80;102204.03;5047134;28;20048;-69
2022/03/02 09:33:35;;;;;;;27.17;15.15;;;;;;;5.96;55.93;102190.81;5049949;28;20041;-69
2022/03/02 09:36:05;;;;;;;29.88;16.25;;;;;;;5.95;55.20;102199.47;5036824;28;20049;-69
2022/03/02 09:38:32;;;;;;;28.48;15.65;;;;;;;6.20;54.76;102197.50;5052020;28;20492;-69
2022/03/02 09:41:04;;;;;;;30.00;16.42;;;;;;;6.36;54.79;102199.06;5036754;28;20120;-70
2022/03/02 09:43:32;;;;;;;34.40;15.38;;;;;;;6.59;52.62;102202.25;5051113;28;20496;-70
2022/03/02 09:46:05;;;;;;;33.00;15.82;;;;;;;6.52;53.39;102192.78;5051449;28;20045;-69
2022/03/02 09:48:33;;;;;;;30.52;16.30;;;;;;;6.64;53.98;102195.25;5051915;28;20060;-70
2022/03/02 09:51:02;;;;;;;32.92;16.05;;;;;;;6.52;53.32;102182.38;5047330;28;20049;-70
2022/03/02 09:53:30;;;;;;;28.85;15.80;;;;;;;6.83;52.82;102177.66;5047299;28;20064;-70
2022/03/02 09:56:01;;;;;;;28.65;16.23;;;;;;;6.53;52.97;102178.91;5051073;28;20052;-70
2022/03/02 09:58:28;;;;;;;27.55;16.98;;;;;;;6.47;52.06;102170.31;5051524;28;20040;-70
2022/03/02 10:00:57;;;;;;;31.98;16.08;;;;;;;7.11;54.18;102170.28;5051245;28;20178;-70
2022/03/02 10:03:26;;;;;;;23.35;15.73;;;;;;;7.75;51.39;102176.22;5040754;28;20057;-70
2022/03/02 10:05:53;;;;;;;23.98;16.52;;;;;;;8.50;50.42;102177.47;5051899;28;20114;-70
2022/03/02 10:08:23;;;;;;;30.45;17.20;;;;;;;9.47;49.15;102164.78;5052263;28;20045;-70
2022/03/02 10:10:50;;;;;;;26.25;15.88;;;;;;;10.02;47.29;102169.47;5043968;28;20103;-70
2022/03/02 10:13:17;;;;;;;25.45;16.33;;;;;;;10.69;45.95;102173.72;5046609;28;20102;-70
2022/03/02 10:15:45;;;;;;;23.00;15.60;;;;;;;11.29;43.11;102162.25;5048428;28;20063;-70
2022/03/02 10:18:14;;;;;;;26.23;16.95;;;;;;;11.39;42.07;102166.28;5043938;28;20128;-70
2022/03/02 10:20:44;;;;;;;26.13;16.90;;;;;;;11.78;42.33;102167.66;5037432;28;20041;-70
2022/03/02 10:23:33;;;;;;;23.05;15.75;;;;;;;11.84;40.86;102159.53;5042862;28;20058;-71
2022/03/02 10:26:06;;;;;;;23.08;15.95;;;;;;;11.12;40.28;102150.50;5031312;28;20056;-70
2022/03/02 10:28:44;;;;;;;25.52;16.17;;;;;;;11.12;43.17;102147.88;5050829;28;20049;-71
2022/03/02 10:31:46;;;;;;;27.77;15.50;;;;;;;11.17;40.55;102147.75;5046610;28;20050;-70
2022/03/02 10:34:34;;;;;;;25.88;16.23;;;;;;;10.69;41.94;102144.84;5043036;28;20041;-71
2022/03/02 10:37:13;;;;;;;29.50;16.38;;;;;;;10.95;40.28;102133.56;5050825;28;20114;-71
2022/03/02 10:39:56;;;;;;;27.27;16.00;;;;;;;12.05;41.84;102142.16;5048290;28;20501;-71
2022/03/02 10:42:25;;;;;;;24.90;16.10;;;;;;;12.04;40.60;102133.44;5045893;28;20059;-70
2022/03/02 10:45:02;;;;;;;20.95;15.15;;;;;;;12.14;38.18;102134.81;5031089;28;20103;-70
2022/03/02 10:47:30;;;;;;;23.65;15.57;;;;;;;11.55;40.62;102139.47;5031065;28;20129;-70
2022/03/02 10:49:58;;;;;;;24.25;15.48;;;;;;;11.20;41.69;102142.38;5030748;28;20052;-70
2022/03/02 10:52:27;;;;;;;22.17;15.02;;;;;;;11.97;40.86;102142.41;5044376;28;20044;-69
2022/03/02 10:54:56;;;;;;;22.17;14.85;;;;;;;11.92;43.01;102143.50;5038505;28;20053;-70
2022/03/02 10:57:25;;;;;;;25.63;14.48;;;;;;;12.81;38.52;102132.28;5041454;28;20045;-70
2022/03/02 10:59:54;;;;;;;24.55;14.88;;;;;;;12.99;37.51;102130.69;5049529;28;20417;-70
2022/03/02 11:02:22;;;;;;;28.23;15.70;;;;;;;13.27;36.53;102135.75;5049871;28;20455;-70
2022/03/02 11:04:49;;;;;;;23.38;13.48;;;;;;;13.21;35.60;102136.00;5033392;28;20490;-70
2022/03/02 11:07:16;;;;;;;20.48;14.18;;;;;;;11.94;37.77;102134.66;5031518;28;20068;-70
2022/03/02 11:09:49;;;;;;;20.92;13.13;;;;;;;11.95;39.95;102130.25;5042622;28;20079;-70
2022/03/02 11:12:18;;;;;;;23.60;14.07;;;;;;;12.09;38.58;102128.84;5049479;28;20045;-70
2022/03/02 11:14:54;;;;;;;20.88;14.02;;;;;;;13.06;35.77;102122.50;5036583;28;20492;-70
2022/03/02 11:17:20;;;;;;;21.35;13.10;;;;;;;13.45;36.36;102121.84;5030132;28;20046;-70
2022/03/02 11:19:47;;;;;;;24.50;13.98;;;;;;;11.40;36.96;102133.88;5029017;28;20065;-70